sensor_id;sensor_type;location;lat;lon;timestamp;temperature;humidity
62339;DHT22;48368;53.406;6.214;2023-01-08T00:01:27;9.60;99.90
62339;DHT22;48368;53.406;6.214;2023-01-08T00:03:53;9.70;99.90
62339;DHT22;48368;53.406;6.214;2023-01-08T00:06:19;9.70;99.90
62339;DHT22;48368;53.406;6.214;2023-01-08T00:08:49;9.70;99.90
62339;DHT22;48368;53.406;6.214;2023-01-08T00:11:15;9.70;99.90
62339;DHT22;48368;53.406;6.214;2023-01-08T00:13:41;9.70;99.90
62339;DHT22;48368;53.406;6.214;2023-01-08T00:16:10;9.70;99.90
62339;DHT22;48368;53.406;6.214;2023-01-08T00:18:36;9.60;99.90
62339;DHT22;48368;53.406;6.214;2023-01-08T00:21:02;9.60;99.90
62339;DHT22;48368;53.406;6.214;2023-01-08T00:23:28;9.60;99.90
62339;DHT22;48368;53.406;6.214;2023-01-08T00:25:53;9.50;99.90
62339;DHT22;48368;53.406;6.214;2023-01-08T00:28:19;9.60;99.90
62339;DHT22;48368;53.406;6.214;2023-01-08T00:30:46;9.50;99.90
62339;DHT22;48368;53.406;6.214;2023-01-08T00:33:12;9.40;99.90
62339;DHT22;48368;53.406;6.214;2023-01-08T00:35:38;9.50;99.90
62339;DHT22;48368;53.406;6.214;2023-01-08T00:38:05;9.40;99.90
62339;DHT22;48368;53.406;6.214;2023-01-08T00:40:32;9.50;99.90
62339;DHT22;48368;53.406;6.214;2023-01-08T00:42:58;9.40;99.90
62339;DHT22;48368;53.406;6.214;2023-01-08T00:45:24;9.40;99.90
62339;DHT22;48368;53.406;6.214;2023-01-08T00:47:50;9.50;99.90
62339;DHT22;48368;53.406;6.214;2023-01-08T00:50:16;9.40;99.90
62339;DHT22;48368;53.406;6.214;2023-01-08T00:52:59;9.50;99.90
62339;DHT22;48368;53.406;6.214;2023-01-08T00:55:25;9.50;99.90
62339;DHT22;48368;53.406;6.214;2023-01-08T00:57:50;9.50;99.90
62339;DHT22;48368;53.406;6.214;2023-01-08T01:00:16;9.50;99.90
62339;DHT22;48368;53.406;6.214;2023-01-08T01:02:42;9.40;99.90
62339;DHT22;48368;53.406;6.214;2023-01-08T01:05:09;9.50;99.90
62339;DHT22;48368;53.406;6.214;2023-01-08T01:07:35;9.40;99.90
62339;DHT22;48368;53.406;6.214;2023-01-08T01:10:16;9.30;99.90
62339;DHT22;48368;53.406;6.214;2023-01-08T01:12:42;9.30;99.90
62339;DHT22;48368;53.406;6.214;2023-01-08T01:15:10;9.30;99.90
62339;DHT22;48368;53.406;6.214;2023-01-08T01:17:38;9.30;99.90
62339;DHT22;48368;53.406;6.214;2023-01-08T01:20:05;9.20;99.90
62339;DHT22;48368;53.406;6.214;2023-01-08T01:22:31;9.20;99.90
62339;DHT22;48368;53.406;6.214;2023-01-08T01:24:57;9.20;99.90
62339;DHT22;48368;53.406;6.214;2023-01-08T01:27:24;9.30;99.90
62339;DHT22;48368;53.406;6.214;2023-01-08T01:29:50;9.20;99.90
62339;DHT22;48368;53.406;6.214;2023-01-08T01:32:15;9.20;99.90
62339;DHT22;48368;53.406;6.214;2023-01-08T01:34:41;9.20;99.90
62339;DHT22;48368;53.406;6.214;2023-01-08T01:37:07;9.20;99.90
62339;DHT22;48368;53.406;6.214;2023-01-08T01:39:33;9.20;99.90
62339;DHT22;48368;53.406;6.214;2023-01-08T01:41:59;9.10;99.90
62339;DHT22;48368;53.406;6.214;2023-01-08T01:44:42;9.10;99.90
62339;DHT22;48368;53.406;6.214;2023-01-08T01:47:21;9.10;99.90
62339;DHT22;48368;53.406;6.214;2023-01-08T01:50:19;9.10;99.90
62339;DHT22;48368;53.406;6.214;2023-01-08T01:55:15;9.00;99.90
62339;DHT22;48368;53.406;6.214;2023-01-08T01:57:48;9.00;99.90
62339;DHT22;48368;53.406;6.214;2023-01-08T02:00:15;9.00;99.90
62339;DHT22;48368;53.406;6.214;2023-01-08T02:02:41;9.00;99.90
62339;DHT22;48368;53.406;6.214;2023-01-08T02:05:07;9.00;99.90
62339;DHT22;48368;53.406;6.214;2023-01-08T02:13:22;8.90;99.90
62339;DHT22;48368;53.406;6.214;2023-01-08T02:15:55;8.90;99.90
62339;DHT22;48368;53.406;6.214;2023-01-08T02:18:39;8.80;99.90
62339;DHT22;48368;53.406;6.214;2023-01-08T02:21:12;8.80;99.90
62339;DHT22;48368;53.406;6.214;2023-01-08T02:26:23;8.80;99.90
62339;DHT22;48368;53.406;6.214;2023-01-08T02:29:10;8.70;99.90
62339;DHT22;48368;53.406;6.214;2023-01-08T02:31:40;8.70;99.90
62339;DHT22;48368;53.406;6.214;2023-01-08T02:34:07;8.70;99.90
62339;DHT22;48368;53.406;6.214;2023-01-08T02:36:54;8.60;99.90
62339;DHT22;48368;53.406;6.214;2023-01-08T02:50:24;8.60;99.90
62339;DHT22;48368;53.406;6.214;2023-01-08T02:55:40;8.50;99.90
62339;DHT22;48368;53.406;6.214;2023-01-08T02:58:06;8.40;99.90
62339;DHT22;48368;53.406;6.214;2023-01-08T03:00:32;8.40;99.90
62339;DHT22;48368;53.406;6.214;2023-01-08T03:03:10;8.40;99.90
62339;DHT22;48368;53.406;6.214;2023-01-08T03:05:39;8.40;99.90
62339;DHT22;48368;53.406;6.214;2023-01-08T03:08:07;8.40;99.90
62339;DHT22;48368;53.406;6.214;2023-01-08T03:10:33;8.40;99.90
62339;DHT22;48368;53.406;6.214;2023-01-08T03:13:05;8.40;99.90
62339;DHT22;48368;53.406;6.214;2023-01-08T03:16:02;8.40;99.90
62339;DHT22;48368;53.406;6.214;2023-01-08T03:18:34;8.40;99.90
62339;DHT22;48368;53.406;6.214;2023-01-08T03:21:02;8.30;99.90
62339;DHT22;48368;53.406;6.214;2023-01-08T03:23:31;8.30;99.90
62339;DHT22;48368;53.406;6.214;2023-01-08T03:25:59;8.30;99.90
62339;DHT22;48368;53.406;6.214;2023-01-08T03:28:29;8.20;99.90
62339;DHT22;48368;53.406;6.214;2023-01-08T03:30:56;8.20;99.90
62339;DHT22;48368;53.406;6.214;2023-01-08T03:33:24;8.30;99.90
62339;DHT22;48368;53.406;6.214;2023-01-08T03:35:53;8.20;99.90
62339;DHT22;48368;53.406;6.214;2023-01-08T03:38:24;8.20;99.90
62339;DHT22;48368;53.406;6.214;2023-01-08T03:40:55;8.20;99.90
62339;DHT22;48368;53.406;6.214;2023-01-08T03:43:21;8.20;99.90
62339;DHT22;48368;53.406;6.214;2023-01-08T03:46:00;8.20;99.90
62339;DHT22;48368;53.406;6.214;2023-01-08T03:48:29;8.10;99.90
62339;DHT22;48368;53.406;6.214;2023-01-08T03:50:56;8.10;99.90
62339;DHT22;48368;53.406;6.214;2023-01-08T03:53:21;8.20;99.90
62339;DHT22;48368;53.406;6.214;2023-01-08T03:55:47;8.10;99.90
62339;DHT22;48368;53.406;6.214;2023-01-08T03:58:12;8.10;99.90
62339;DHT22;48368;53.406;6.214;2023-01-08T04:00:38;8.10;99.90
62339;DHT22;48368;53.406;6.214;2023-01-08T04:03:04;8.10;99.90
62339;DHT22;48368;53.406;6.214;2023-01-08T04:05:30;8.00;99.90
62339;DHT22;48368;53.406;6.214;2023-01-08T04:07:56;7.90;99.90
62339;DHT22;48368;53.406;6.214;2023-01-08T04:10:22;8.00;99.90
62339;DHT22;48368;53.406;6.214;2023-01-08T04:12:48;8.00;99.90
62339;DHT22;48368;53.406;6.214;2023-01-08T04:15:14;7.90;99.90
62339;DHT22;48368;53.406;6.214;2023-01-08T04:17:39;7.80;99.90
62339;DHT22;48368;53.406;6.214;2023-01-08T04:20:06;7.90;99.90
62339;DHT22;48368;53.406;6.214;2023-01-08T04:22:31;7.90;99.90
62339;DHT22;48368;53.406;6.214;2023-01-08T04:24:57;7.80;99.90
62339;DHT22;48368;53.406;6.214;2023-01-08T04:27:23;7.80;99.90
62339;DHT22;48368;53.406;6.214;2023-01-08T04:29:48;7.80;99.90
62339;DHT22;48368;53.406;6.214;2023-01-08T04:32:14;7.80;99.90
62339;DHT22;48368;53.406;6.214;2023-01-08T04:34:39;7.80;99.90
62339;DHT22;48368;53.406;6.214;2023-01-08T04:37:05;7.80;99.90
62339;DHT22;48368;53.406;6.214;2023-01-08T04:39:31;7.80;99.90
62339;DHT22;48368;53.406;6.214;2023-01-08T04:41:56;7.70;99.90
62339;DHT22;48368;53.406;6.214;2023-01-08T04:44:22;7.90;99.90
62339;DHT22;48368;53.406;6.214;2023-01-08T04:46:48;7.90;99.90
62339;DHT22;48368;53.406;6.214;2023-01-08T04:49:13;7.80;99.90
62339;DHT22;48368;53.406;6.214;2023-01-08T04:51:39;7.70;99.90
62339;DHT22;48368;53.406;6.214;2023-01-08T04:54:05;7.70;99.90
62339;DHT22;48368;53.406;6.214;2023-01-08T04:56:30;7.70;99.90
62339;DHT22;48368;53.406;6.214;2023-01-08T04:58:57;7.80;99.90
62339;DHT22;48368;53.406;6.214;2023-01-08T05:01:25;7.70;99.90
62339;DHT22;48368;53.406;6.214;2023-01-08T05:03:55;7.70;99.90
62339;DHT22;48368;53.406;6.214;2023-01-08T05:06:22;7.70;99.90
62339;DHT22;48368;53.406;6.214;2023-01-08T05:08:47;7.70;99.90
62339;DHT22;48368;53.406;6.214;2023-01-08T05:11:13;7.80;99.90
62339;DHT22;48368;53.406;6.214;2023-01-08T05:13:39;7.70;99.90
62339;DHT22;48368;53.406;6.214;2023-01-08T05:16:07;7.60;99.90
62339;DHT22;48368;53.406;6.214;2023-01-08T05:18:33;7.70;99.90
62339;DHT22;48368;53.406;6.214;2023-01-08T05:21:03;7.80;99.90
62339;DHT22;48368;53.406;6.214;2023-01-08T05:23:30;7.80;99.90
62339;DHT22;48368;53.406;6.214;2023-01-08T05:26:00;7.80;99.90
62339;DHT22;48368;53.406;6.214;2023-01-08T05:28:28;7.80;99.90
62339;DHT22;48368;53.406;6.214;2023-01-08T05:30:54;7.80;99.90
62339;DHT22;48368;53.406;6.214;2023-01-08T05:33:20;7.70;99.90
62339;DHT22;48368;53.406;6.214;2023-01-08T05:35:46;7.70;99.90
62339;DHT22;48368;53.406;6.214;2023-01-08T05:38:12;7.80;99.90
62339;DHT22;48368;53.406;6.214;2023-01-08T05:40:37;7.80;99.90
62339;DHT22;48368;53.406;6.214;2023-01-08T05:43:03;7.70;99.90
62339;DHT22;48368;53.406;6.214;2023-01-08T05:45:30;7.70;99.90
62339;DHT22;48368;53.406;6.214;2023-01-08T05:47:56;7.70;99.90
62339;DHT22;48368;53.406;6.214;2023-01-08T05:50:22;7.60;99.90
62339;DHT22;48368;53.406;6.214;2023-01-08T05:52:48;7.70;99.90
62339;DHT22;48368;53.406;6.214;2023-01-08T05:55:13;7.60;99.90
62339;DHT22;48368;53.406;6.214;2023-01-08T05:57:39;7.60;99.90
62339;DHT22;48368;53.406;6.214;2023-01-08T06:00:06;7.60;99.90
62339;DHT22;48368;53.406;6.214;2023-01-08T06:02:33;7.60;99.90
62339;DHT22;48368;53.406;6.214;2023-01-08T06:04:59;7.70;99.90
62339;DHT22;48368;53.406;6.214;2023-01-08T06:07:24;7.50;99.90
62339;DHT22;48368;53.406;6.214;2023-01-08T06:09:52;7.60;99.90
62339;DHT22;48368;53.406;6.214;2023-01-08T06:12:18;7.70;99.90
62339;DHT22;48368;53.406;6.214;2023-01-08T06:14:43;7.60;99.90
62339;DHT22;48368;53.406;6.214;2023-01-08T06:17:09;7.70;99.90
62339;DHT22;48368;53.406;6.214;2023-01-08T06:19:35;7.70;99.90
62339;DHT22;48368;53.406;6.214;2023-01-08T06:22:00;7.60;99.90
62339;DHT22;48368;53.406;6.214;2023-01-08T06:24:26;7.70;99.90
62339;DHT22;48368;53.406;6.214;2023-01-08T06:26:51;7.60;99.90
62339;DHT22;48368;53.406;6.214;2023-01-08T06:29:17;7.60;99.90
62339;DHT22;48368;53.406;6.214;2023-01-08T06:31:43;7.60;99.90
62339;DHT22;48368;53.406;6.214;2023-01-08T06:34:09;7.60;99.90
62339;DHT22;48368;53.406;6.214;2023-01-08T06:36:35;7.50;99.90
62339;DHT22;48368;53.406;6.214;2023-01-08T06:39:00;7.50;99.90
62339;DHT22;48368;53.406;6.214;2023-01-08T06:41:26;7.60;99.90
62339;DHT22;48368;53.406;6.214;2023-01-08T06:43:52;7.50;99.90
62339;DHT22;48368;53.406;6.214;2023-01-08T06:46:17;7.50;99.90
62339;DHT22;48368;53.406;6.214;2023-01-08T06:48:43;7.60;99.90
62339;DHT22;48368;53.406;6.214;2023-01-08T06:51:09;7.50;99.90
62339;DHT22;48368;53.406;6.214;2023-01-08T06:53:34;7.50;99.90
62339;DHT22;48368;53.406;6.214;2023-01-08T06:56:02;7.50;99.90
62339;DHT22;48368;53.406;6.214;2023-01-08T06:58:28;7.60;99.90
62339;DHT22;48368;53.406;6.214;2023-01-08T07:00:54;7.50;99.90
62339;DHT22;48368;53.406;6.214;2023-01-08T07:03:20;7.60;99.90
62339;DHT22;48368;53.406;6.214;2023-01-08T07:05:46;7.50;99.90
62339;DHT22;48368;53.406;6.214;2023-01-08T07:08:15;7.50;99.90
62339;DHT22;48368;53.406;6.214;2023-01-08T07:10:42;7.50;99.90
62339;DHT22;48368;53.406;6.214;2023-01-08T07:13:08;7.40;99.90
62339;DHT22;48368;53.406;6.214;2023-01-08T07:15:39;7.40;99.90
62339;DHT22;48368;53.406;6.214;2023-01-08T07:18:06;7.40;99.90
62339;DHT22;48368;53.406;6.214;2023-01-08T07:20:33;7.40;99.90
62339;DHT22;48368;53.406;6.214;2023-01-08T07:23:09;7.40;99.90
62339;DHT22;48368;53.406;6.214;2023-01-08T07:25:35;7.40;99.90
62339;DHT22;48368;53.406;6.214;2023-01-08T07:28:01;7.40;99.90
62339;DHT22;48368;53.406;6.214;2023-01-08T07:30:27;7.30;99.90
62339;DHT22;48368;53.406;6.214;2023-01-08T07:32:57;7.40;99.90
62339;DHT22;48368;53.406;6.214;2023-01-08T07:35:23;7.30;99.90
62339;DHT22;48368;53.406;6.214;2023-01-08T07:37:48;7.30;99.90
62339;DHT22;48368;53.406;6.214;2023-01-08T07:40:14;7.30;99.90
62339;DHT22;48368;53.406;6.214;2023-01-08T07:42:40;7.20;99.90
62339;DHT22;48368;53.406;6.214;2023-01-08T07:45:06;7.20;99.90
62339;DHT22;48368;53.406;6.214;2023-01-08T07:47:32;7.20;99.90
62339;DHT22;48368;53.406;6.214;2023-01-08T07:49:58;7.20;99.90
62339;DHT22;48368;53.406;6.214;2023-01-08T07:52:23;7.20;99.90
62339;DHT22;48368;53.406;6.214;2023-01-08T07:54:49;7.20;99.90
62339;DHT22;48368;53.406;6.214;2023-01-08T07:57:15;7.20;99.90
62339;DHT22;48368;53.406;6.214;2023-01-08T07:59:40;7.10;99.90
62339;DHT22;48368;53.406;6.214;2023-01-08T08:02:06;7.10;99.90
62339;DHT22;48368;53.406;6.214;2023-01-08T08:04:32;7.00;99.90
62339;DHT22;48368;53.406;6.214;2023-01-08T08:06:57;7.10;99.90
62339;DHT22;48368;53.406;6.214;2023-01-08T08:09:23;7.10;99.90
62339;DHT22;48368;53.406;6.214;2023-01-08T08:11:49;7.00;99.90
62339;DHT22;48368;53.406;6.214;2023-01-08T08:14:14;7.20;99.90
62339;DHT22;48368;53.406;6.214;2023-01-08T08:16:40;7.10;99.90
62339;DHT22;48368;53.406;6.214;2023-01-08T08:19:06;7.10;99.90
62339;DHT22;48368;53.406;6.214;2023-01-08T08:21:31;7.20;99.90
62339;DHT22;48368;53.406;6.214;2023-01-08T08:23:57;7.00;99.90
62339;DHT22;48368;53.406;6.214;2023-01-08T08:26:23;7.10;99.90
62339;DHT22;48368;53.406;6.214;2023-01-08T08:28:48;7.10;99.90
62339;DHT22;48368;53.406;6.214;2023-01-08T08:31:14;7.20;99.90
62339;DHT22;48368;53.406;6.214;2023-01-08T08:33:40;7.10;99.90
62339;DHT22;48368;53.406;6.214;2023-01-08T08:36:06;7.20;99.90
62339;DHT22;48368;53.406;6.214;2023-01-08T08:38:32;7.20;99.90
62339;DHT22;48368;53.406;6.214;2023-01-08T08:40:58;7.20;99.90
62339;DHT22;48368;53.406;6.214;2023-01-08T08:43:23;7.20;99.90
62339;DHT22;48368;53.406;6.214;2023-01-08T08:45:49;7.20;99.90
62339;DHT22;48368;53.406;6.214;2023-01-08T08:48:15;7.20;99.90
62339;DHT22;48368;53.406;6.214;2023-01-08T08:50:41;7.20;99.90
62339;DHT22;48368;53.406;6.214;2023-01-08T08:53:08;7.20;99.90
62339;DHT22;48368;53.406;6.214;2023-01-08T08:55:34;7.30;99.90
62339;DHT22;48368;53.406;6.214;2023-01-08T08:58:05;7.30;99.90
62339;DHT22;48368;53.406;6.214;2023-01-08T09:00:31;7.40;99.90
62339;DHT22;48368;53.406;6.214;2023-01-08T09:02:57;7.30;99.90
62339;DHT22;48368;53.406;6.214;2023-01-08T09:05:23;7.30;99.90
62339;DHT22;48368;53.406;6.214;2023-01-08T09:07:48;7.50;99.90
62339;DHT22;48368;53.406;6.214;2023-01-08T09:10:14;7.50;99.90
62339;DHT22;48368;53.406;6.214;2023-01-08T09:12:39;7.50;99.90
62339;DHT22;48368;53.406;6.214;2023-01-08T09:15:05;7.60;99.90
62339;DHT22;48368;53.406;6.214;2023-01-08T09:17:32;7.60;99.90
62339;DHT22;48368;53.406;6.214;2023-01-08T09:19:58;7.60;99.90
62339;DHT22;48368;53.406;6.214;2023-01-08T09:22:23;7.70;99.90
62339;DHT22;48368;53.406;6.214;2023-01-08T09:24:49;7.70;99.90
62339;DHT22;48368;53.406;6.214;2023-01-08T09:27:15;7.70;99.90
62339;DHT22;48368;53.406;6.214;2023-01-08T09:29:41;7.70;99.90
62339;DHT22;48368;53.406;6.214;2023-01-08T09:32:07;7.80;99.90
62339;DHT22;48368;53.406;6.214;2023-01-08T09:34:33;7.80;99.90
62339;DHT22;48368;53.406;6.214;2023-01-08T09:37:01;7.80;99.90
62339;DHT22;48368;53.406;6.214;2023-01-08T09:39:26;7.90;99.90
62339;DHT22;48368;53.406;6.214;2023-01-08T09:41:52;7.90;99.90
62339;DHT22;48368;53.406;6.214;2023-01-08T09:44:22;7.90;99.90
62339;DHT22;48368;53.406;6.214;2023-01-08T09:46:53;8.00;99.90
62339;DHT22;48368;53.406;6.214;2023-01-08T09:49:38;8.00;99.90
62339;DHT22;48368;53.406;6.214;2023-01-08T09:52:05;8.10;99.90
62339;DHT22;48368;53.406;6.214;2023-01-08T09:54:31;8.10;99.90
62339;DHT22;48368;53.406;6.214;2023-01-08T09:56:58;8.20;99.90
62339;DHT22;48368;53.406;6.214;2023-01-08T09:59:24;8.20;99.90
62339;DHT22;48368;53.406;6.214;2023-01-08T10:01:51;8.20;99.90
62339;DHT22;48368;53.406;6.214;2023-01-08T10:04:25;8.30;99.90
62339;DHT22;48368;53.406;6.214;2023-01-08T10:09:27;8.40;99.90
62339;DHT22;48368;53.406;6.214;2023-01-08T10:11:57;8.40;99.90
62339;DHT22;48368;53.406;6.214;2023-01-08T10:14:35;8.50;99.90
62339;DHT22;48368;53.406;6.214;2023-01-08T10:17:29;8.50;99.90
62339;DHT22;48368;53.406;6.214;2023-01-08T10:19:56;8.50;99.90
62339;DHT22;48368;53.406;6.214;2023-01-08T10:22:23;8.60;99.90
62339;DHT22;48368;53.406;6.214;2023-01-08T10:24:50;8.50;99.90
62339;DHT22;48368;53.406;6.214;2023-01-08T10:27:21;8.50;99.90
62339;DHT22;48368;53.406;6.214;2023-01-08T10:29:49;8.60;99.90
62339;DHT22;48368;53.406;6.214;2023-01-08T10:32:25;8.60;99.90
62339;DHT22;48368;53.406;6.214;2023-01-08T10:34:55;8.60;99.90
62339;DHT22;48368;53.406;6.214;2023-01-08T10:37:30;8.60;99.90
62339;DHT22;48368;53.406;6.214;2023-01-08T10:42:45;8.70;99.90
62339;DHT22;48368;53.406;6.214;2023-01-08T10:45:19;8.70;99.90
62339;DHT22;48368;53.406;6.214;2023-01-08T10:47:48;8.70;99.90
62339;DHT22;48368;53.406;6.214;2023-01-08T10:50:27;8.70;99.90
62339;DHT22;48368;53.406;6.214;2023-01-08T10:52:59;8.70;99.90
62339;DHT22;48368;53.406;6.214;2023-01-08T10:55:31;8.80;99.90
62339;DHT22;48368;53.406;6.214;2023-01-08T10:58:02;8.80;99.90
62339;DHT22;48368;53.406;6.214;2023-01-08T11:00:30;8.80;99.90
62339;DHT22;48368;53.406;6.214;2023-01-08T11:02:59;8.80;99.90
62339;DHT22;48368;53.406;6.214;2023-01-08T11:05:33;8.80;99.90
62339;DHT22;48368;53.406;6.214;2023-01-08T11:08:00;8.80;99.90
62339;DHT22;48368;53.406;6.214;2023-01-08T11:10:28;8.90;99.90
62339;DHT22;48368;53.406;6.214;2023-01-08T11:12:59;8.90;99.90
62339;DHT22;48368;53.406;6.214;2023-01-08T11:15:38;8.90;99.90
62339;DHT22;48368;53.406;6.214;2023-01-08T11:18:19;9.00;99.90
62339;DHT22;48368;53.406;6.214;2023-01-08T11:20:46;9.00;99.90
62339;DHT22;48368;53.406;6.214;2023-01-08T11:23:22;9.00;99.90
62339;DHT22;48368;53.406;6.214;2023-01-08T11:26:10;9.00;99.90
62339;DHT22;48368;53.406;6.214;2023-01-08T11:32:07;9.00;99.90
62339;DHT22;48368;53.406;6.214;2023-01-08T11:34:38;9.00;99.90
62339;DHT22;48368;53.406;6.214;2023-01-08T11:37:21;9.00;99.90
62339;DHT22;48368;53.406;6.214;2023-01-08T11:39:47;9.10;99.90
62339;DHT22;48368;53.406;6.214;2023-01-08T11:42:53;9.00;99.90
62339;DHT22;48368;53.406;6.214;2023-01-08T11:45:29;8.90;99.90
62339;DHT22;48368;53.406;6.214;2023-01-08T11:48:10;8.90;99.90
62339;DHT22;48368;53.406;6.214;2023-01-08T11:56:19;9.00;99.90
62339;DHT22;48368;53.406;6.214;2023-01-08T11:59:03;9.00;99.90
62339;DHT22;48368;53.406;6.214;2023-01-08T12:02:02;9.00;99.90
62339;DHT22;48368;53.406;6.214;2023-01-08T12:04:42;8.90;99.90
62339;DHT22;48368;53.406;6.214;2023-01-08T12:19:13;9.00;99.90
62339;DHT22;48368;53.406;6.214;2023-01-08T12:22:14;9.00;99.90
62339;DHT22;48368;53.406;6.214;2023-01-08T12:25:06;9.00;99.90
62339;DHT22;48368;53.406;6.214;2023-01-08T12:32:57;9.00;99.90
62339;DHT22;48368;53.406;6.214;2023-01-08T12:35:31;9.10;99.90
62339;DHT22;48368;53.406;6.214;2023-01-08T12:41:06;9.00;99.90
62339;DHT22;48368;53.406;6.214;2023-01-08T12:46:18;9.00;99.90
62339;DHT22;48368;53.406;6.214;2023-01-08T12:48:46;9.10;99.90
62339;DHT22;48368;53.406;6.214;2023-01-08T12:51:24;9.10;99.90
62339;DHT22;48368;53.406;6.214;2023-01-08T12:54:00;9.00;99.90
62339;DHT22;48368;53.406;6.214;2023-01-08T13:04:46;8.90;99.90
62339;DHT22;48368;53.406;6.214;2023-01-08T13:07:43;8.90;99.90
62339;DHT22;48368;53.406;6.214;2023-01-08T13:13:07;8.90;99.90
62339;DHT22;48368;53.406;6.214;2023-01-08T13:15:47;8.90;99.90
62339;DHT22;48368;53.406;6.214;2023-01-08T13:18:18;8.90;99.90
62339;DHT22;48368;53.406;6.214;2023-01-08T13:20:55;8.80;99.90
62339;DHT22;48368;53.406;6.214;2023-01-08T13:23:33;8.80;99.90
62339;DHT22;48368;53.406;6.214;2023-01-08T13:26:04;8.90;99.90
62339;DHT22;48368;53.406;6.214;2023-01-08T13:33:50;8.90;99.90
62339;DHT22;48368;53.406;6.214;2023-01-08T13:36:23;8.80;99.90
62339;DHT22;48368;53.406;6.214;2023-01-08T13:41:41;8.80;99.90
62339;DHT22;48368;53.406;6.214;2023-01-08T13:44:20;8.70;99.90
62339;DHT22;48368;53.406;6.214;2023-01-08T13:46:54;8.70;99.90
62339;DHT22;48368;53.406;6.214;2023-01-08T13:49:42;8.70;99.90
62339;DHT22;48368;53.406;6.214;2023-01-08T13:55:20;8.70;99.90
62339;DHT22;48368;53.406;6.214;2023-01-08T13:57:52;8.70;99.90
62339;DHT22;48368;53.406;6.214;2023-01-08T14:00:25;8.70;99.90
62339;DHT22;48368;53.406;6.214;2023-01-08T14:02:53;8.70;99.90
62339;DHT22;48368;53.406;6.214;2023-01-08T14:05:25;8.70;99.90
62339;DHT22;48368;53.406;6.214;2023-01-08T14:07:51;8.70;99.90
62339;DHT22;48368;53.406;6.214;2023-01-08T14:10:17;8.70;99.90
62339;DHT22;48368;53.406;6.214;2023-01-08T14:12:44;8.70;99.90
62339;DHT22;48368;53.406;6.214;2023-01-08T14:15:26;8.70;99.90
62339;DHT22;48368;53.406;6.214;2023-01-08T14:17:53;8.70;99.90
62339;DHT22;48368;53.406;6.214;2023-01-08T14:20:35;8.70;99.90
62339;DHT22;48368;53.406;6.214;2023-01-08T14:23:01;8.70;99.90
62339;DHT22;48368;53.406;6.214;2023-01-08T14:25:32;8.70;99.90
62339;DHT22;48368;53.406;6.214;2023-01-08T14:28:02;8.70;99.90
62339;DHT22;48368;53.406;6.214;2023-01-08T14:30:29;8.70;99.90
62339;DHT22;48368;53.406;6.214;2023-01-08T14:32:56;8.60;99.90
62339;DHT22;48368;53.406;6.214;2023-01-08T14:35:27;8.60;99.90
62339;DHT22;48368;53.406;6.214;2023-01-08T14:37:55;8.60;99.90
62339;DHT22;48368;53.406;6.214;2023-01-08T14:40:34;8.60;99.90
62339;DHT22;48368;53.406;6.214;2023-01-08T14:43:08;8.70;99.90
62339;DHT22;48368;53.406;6.214;2023-01-08T14:45:36;8.60;99.90
62339;DHT22;48368;53.406;6.214;2023-01-08T14:50:40;8.70;99.90
62339;DHT22;48368;53.406;6.214;2023-01-08T14:53:14;8.60;99.90
62339;DHT22;48368;53.406;6.214;2023-01-08T14:55:47;8.70;99.90
62339;DHT22;48368;53.406;6.214;2023-01-08T14:58:17;8.70;99.90
62339;DHT22;48368;53.406;6.214;2023-01-08T15:00:53;8.60;99.90
62339;DHT22;48368;53.406;6.214;2023-01-08T15:05:55;8.50;99.90
62339;DHT22;48368;53.406;6.214;2023-01-08T15:08:36;8.50;99.90
62339;DHT22;48368;53.406;6.214;2023-01-08T15:11:20;8.50;99.90
62339;DHT22;48368;53.406;6.214;2023-01-08T15:13:48;8.40;99.90
62339;DHT22;48368;53.406;6.214;2023-01-08T15:16:36;8.40;99.90
62339;DHT22;48368;53.406;6.214;2023-01-08T15:19:12;8.40;99.90
62339;DHT22;48368;53.406;6.214;2023-01-08T15:21:45;8.40;99.90
62339;DHT22;48368;53.406;6.214;2023-01-08T15:26:46;8.30;99.90
62339;DHT22;48368;53.406;6.214;2023-01-08T15:29:18;8.30;99.90
62339;DHT22;48368;53.406;6.214;2023-01-08T15:31:46;8.20;99.90
62339;DHT22;48368;53.406;6.214;2023-01-08T15:34:18;8.20;99.90
62339;DHT22;48368;53.406;6.214;2023-01-08T15:36:45;8.10;99.90
62339;DHT22;48368;53.406;6.214;2023-01-08T15:39:11;8.10;99.90
62339;DHT22;48368;53.406;6.214;2023-01-08T15:41:37;8.10;99.90
62339;DHT22;48368;53.406;6.214;2023-01-08T15:44:23;8.00;99.90
62339;DHT22;48368;53.406;6.214;2023-01-08T15:46:50;8.00;99.90
62339;DHT22;48368;53.406;6.214;2023-01-08T15:49:16;7.90;99.90
62339;DHT22;48368;53.406;6.214;2023-01-08T15:51:44;8.00;99.90
62339;DHT22;48368;53.406;6.214;2023-01-08T15:54:11;7.90;99.90
62339;DHT22;48368;53.406;6.214;2023-01-08T15:56:37;7.80;99.90
62339;DHT22;48368;53.406;6.214;2023-01-08T15:59:03;7.80;99.90
62339;DHT22;48368;53.406;6.214;2023-01-08T16:01:29;7.80;99.90
62339;DHT22;48368;53.406;6.214;2023-01-08T16:03:56;7.70;99.90
62339;DHT22;48368;53.406;6.214;2023-01-08T16:06:21;7.70;99.90
62339;DHT22;48368;53.406;6.214;2023-01-08T16:08:47;7.70;99.90
62339;DHT22;48368;53.406;6.214;2023-01-08T16:11:15;7.70;99.90
62339;DHT22;48368;53.406;6.214;2023-01-08T16:13:41;7.70;99.90
62339;DHT22;48368;53.406;6.214;2023-01-08T16:16:12;7.60;99.90
62339;DHT22;48368;53.406;6.214;2023-01-08T16:18:38;7.60;99.90
62339;DHT22;48368;53.406;6.214;2023-01-08T16:21:05;7.50;99.90
62339;DHT22;48368;53.406;6.214;2023-01-08T16:23:33;7.50;99.90
62339;DHT22;48368;53.406;6.214;2023-01-08T16:26:07;7.50;99.90
62339;DHT22;48368;53.406;6.214;2023-01-08T16:28:33;7.60;99.90
62339;DHT22;48368;53.406;6.214;2023-01-08T16:30:59;7.40;99.90
62339;DHT22;48368;53.406;6.214;2023-01-08T16:33:25;7.40;99.90
62339;DHT22;48368;53.406;6.214;2023-01-08T16:36:02;7.50;99.90
62339;DHT22;48368;53.406;6.214;2023-01-08T16:38:28;7.60;99.90
62339;DHT22;48368;53.406;6.214;2023-01-08T16:40:55;7.60;99.90
62339;DHT22;48368;53.406;6.214;2023-01-08T16:43:22;7.60;99.90
62339;DHT22;48368;53.406;6.214;2023-01-08T16:45:48;7.60;99.90
62339;DHT22;48368;53.406;6.214;2023-01-08T16:48:14;7.60;99.90
62339;DHT22;48368;53.406;6.214;2023-01-08T16:50:40;7.60;99.90
62339;DHT22;48368;53.406;6.214;2023-01-08T16:53:06;7.70;99.90
62339;DHT22;48368;53.406;6.214;2023-01-08T16:55:32;7.70;99.90
62339;DHT22;48368;53.406;6.214;2023-01-08T16:57:57;7.70;99.90
62339;DHT22;48368;53.406;6.214;2023-01-08T17:00:23;7.70;99.90
62339;DHT22;48368;53.406;6.214;2023-01-08T17:02:49;7.60;99.90
62339;DHT22;48368;53.406;6.214;2023-01-08T17:05:14;7.60;99.90
62339;DHT22;48368;53.406;6.214;2023-01-08T17:07:41;7.60;99.90
62339;DHT22;48368;53.406;6.214;2023-01-08T17:10:07;7.50;99.90
62339;DHT22;48368;53.406;6.214;2023-01-08T17:12:33;7.50;99.90
62339;DHT22;48368;53.406;6.214;2023-01-08T17:14:59;7.50;99.90
62339;DHT22;48368;53.406;6.214;2023-01-08T17:17:24;7.40;99.90
62339;DHT22;48368;53.406;6.214;2023-01-08T17:19:50;7.30;99.90
62339;DHT22;48368;53.406;6.214;2023-01-08T17:22:15;7.30;99.90
62339;DHT22;48368;53.406;6.214;2023-01-08T17:24:41;7.30;99.90
62339;DHT22;48368;53.406;6.214;2023-01-08T17:27:07;7.20;99.90
62339;DHT22;48368;53.406;6.214;2023-01-08T17:29:32;7.20;99.90